Pagina principale
METAR-TAF:

METAR-TAF

Aeroporti :

Aeroporto di Madrid-Barajas

Madrid, Spagna

latitudine: 40-27N, longitudine: 003-33W, altezza: 609 m

Osservazione

Il bollettino è stato emesso 15 minuti fa, alle 00:00 UTC
Vento 7 kt da nord/nord-ovest
Temperature 14°C
Umidità 94%
Pressione 1018 hPa
Visibilità 10 km o più
Nubi sparse ad un'altezza di 4500 ft
Nubi sparse ad un'altezza di 6000 ft
Nuvoloso ad un'altezza di 7000 ft

METAR: LEMD 200000Z 34007KT 9999 SCT045 SCT060 BKN070 14/13 Q1018 R88/29//95 NOSIG

Ora: 02:15 (00:15 UTC)

Previsione

Il bollettino è stato emesso 1 ora e 15 minuti fa, alle 23:00 UTC
Previsione valida dal 20 alle 00 UTC al 21 alle 06 UTC
Vento 8 kt da nord/nord-est
Visibilità 10 km o più
Nuvoloso ad un'altezza di 6000 ft

TAF: LEMD 192300Z 2000/2106 02008KT 9999 BKN060 TX21/2015Z TN12/2006Z

Osservazioni e previsioni meteorologiche di più di 4000 aeroporti (messaggi METAR e TAF).

Le stazioni disponibili sono rappresentate dai dischi gialli e rossi sulla carta.

Puntare il mouse per vedere il nome della stazione.

Clicca sopra per visualizzare le osservazioni e previsioni meteorologiche.

Per cambiare la mappa : fare clic sui pulsanti verdi con una croce nera per ingrandire, il pulsante verde con un trattino per diminuire, o sulla freccia verde per le mappe adiacenti.


METAR-TAF: